createdAt,value
2022-11-05T00:02:24.960Z,7.4
2022-11-05T00:04:31.068Z,7.4
2022-11-05T00:06:32.665Z,7.3
2022-11-05T00:08:39.318Z,7.2
2022-11-05T00:10:43.160Z,7.2
2022-11-05T00:12:47.019Z,7.2
2022-11-05T00:17:58.074Z,7.1
2022-11-05T00:22:08.525Z,6.9
2022-11-05T00:26:16.194Z,6.8
2022-11-05T00:28:20.047Z,6.8
2022-11-05T00:30:23.870Z,6.8
2022-11-05T00:32:27.714Z,6.8
2022-11-05T00:34:31.556Z,6.7
2022-11-05T00:36:38.343Z,6.7
2022-11-05T00:38:42.007Z,6.7
2022-11-05T00:40:45.813Z,6.7
2022-11-05T00:42:49.637Z,6.7
2022-11-05T00:44:53.488Z,6.7
2022-11-05T00:46:59.876Z,6.6
2022-11-05T00:49:01.158Z,6.6
2022-11-05T00:51:07.776Z,6.5
2022-11-05T00:53:11.770Z,6.5
2022-11-05T00:55:15.412Z,6.5
2022-11-05T00:57:19.230Z,6.5
2022-11-05T00:59:23.060Z,6.4
2022-11-05T01:01:27.078Z,6.4
2022-11-05T01:03:30.668Z,6.4
2022-11-05T01:09:45.027Z,6.3
2022-11-05T01:10:48.349Z,6.3
2022-11-05T01:12:52.164Z,6.3
2022-11-05T01:14:55.993Z,6.2
2022-11-05T01:16:59.807Z,6.3
2022-11-05T01:19:06.431Z,6.2
2022-11-05T01:21:10.232Z,6.2
2022-11-05T01:23:14.144Z,6.2
2022-11-05T01:25:17.843Z,6.1
2022-11-05T01:27:21.751Z,6.1
2022-11-05T01:29:25.567Z,6.1
2022-11-05T01:31:29.372Z,6.1
2022-11-05T01:33:35.985Z,6.1
2022-11-05T01:35:39.779Z,6.1
2022-11-05T01:37:43.593Z,6.1
2022-11-05T01:39:47.370Z,6.1
2022-11-05T01:41:51.181Z,6
2022-11-05T01:43:54.970Z,6
2022-11-05T01:45:58.780Z,6
2022-11-05T01:48:05.386Z,6
2022-11-05T01:50:09.177Z,6
2022-11-05T01:52:13.928Z,5.9
2022-11-05T01:54:17.759Z,6
2022-11-05T01:56:21.558Z,5.9
2022-11-05T01:58:25.350Z,5.9
2022-11-05T02:00:29.136Z,5.9
2022-11-05T02:02:35.842Z,5.8
2022-11-05T02:06:43.369Z,5.8
2022-11-05T02:09:10.990Z,5.8
2022-11-05T02:11:14.787Z,5.8
2022-11-05T02:13:18.570Z,5.8
2022-11-05T02:15:25.182Z,5.7
2022-11-05T02:17:28.982Z,5.8
2022-11-05T02:19:32.787Z,5.8
2022-11-05T02:21:36.573Z,5.8
2022-11-05T02:23:40.356Z,5.8
2022-11-05T02:25:44.149Z,5.7
2022-11-05T02:27:47.948Z,5.6
2022-11-05T02:29:54.657Z,5.7
2022-11-05T02:31:58.437Z,5.6
2022-11-05T02:34:02.230Z,5.6
2022-11-05T02:36:06.028Z,5.6
2022-11-05T02:38:09.817Z,5.6
2022-11-05T02:40:13.696Z,5.6
2022-11-05T02:42:17.503Z,5.6
2022-11-05T02:44:24.086Z,5.6
2022-11-05T02:46:27.885Z,5.6
2022-11-05T02:48:31.695Z,5.5
2022-11-05T02:50:35.551Z,5.5
2022-11-05T02:52:39.339Z,5.5
2022-11-05T02:54:43.129Z,5.4
2022-11-05T03:00:57.280Z,5.4
2022-11-05T03:04:04.363Z,5.4
2022-11-05T03:06:08.162Z,5.3
2022-11-05T03:08:11.940Z,5.3
2022-11-05T03:10:15.802Z,5.4
2022-11-05T03:12:22.413Z,5.4
2022-11-05T03:14:26.183Z,5.4
2022-11-05T03:16:29.980Z,5.4
2022-11-05T03:18:33.855Z,5.4
2022-11-05T03:20:37.623Z,5.5
2022-11-05T03:22:41.440Z,5.5
2022-11-05T03:26:52.025Z,5.6
2022-11-05T03:30:59.574Z,5.6
2022-11-05T03:33:03.387Z,5.6
2022-11-05T03:35:07.144Z,5.6
2022-11-05T03:45:28.823Z,5.5
2022-11-05T03:51:41.659Z,5.5
2022-11-05T03:53:45.442Z,5.5
2022-11-05T03:55:52.065Z,5.6
2022-11-05T03:57:55.940Z,5.6
2022-11-05T03:59:59.719Z,5.5
2022-11-05T04:01:03.105Z,5.5
2022-11-05T04:03:06.978Z,5.6
2022-11-05T04:05:10.716Z,5.6
2022-11-05T04:07:14.624Z,5.5
2022-11-05T04:09:21.407Z,5.4
2022-11-05T04:11:25.195Z,5.4
2022-11-05T04:13:28.978Z,5.4
2022-11-05T04:15:32.884Z,5.4
2022-11-05T04:17:36.694Z,5.4
2022-11-05T04:19:40.587Z,5.3
2022-11-05T04:21:44.455Z,5.3
2022-11-05T04:23:51.168Z,5.3
2022-11-05T04:25:55.039Z,5.2
2022-11-05T04:27:58.896Z,5.2
2022-11-05T04:30:02.802Z,5.2
2022-11-05T04:32:06.686Z,5.2
2022-11-05T04:34:10.455Z,5.2
2022-11-05T04:36:14.333Z,5.2
2022-11-05T04:38:21.048Z,5.1
2022-11-05T04:40:24.936Z,5.1
2022-11-05T04:42:28.808Z,5.1
2022-11-05T04:44:32.680Z,5.1
2022-11-05T04:46:36.568Z,5.1
2022-11-05T04:48:40.436Z,5
2022-11-05T04:50:44.329Z,5
2022-11-05T04:52:51.007Z,5
2022-11-05T04:54:54.767Z,4.9
2022-11-05T04:56:58.678Z,5
2022-11-05T04:58:02.125Z,5
2022-11-05T05:00:05.942Z,5.1
2022-11-05T05:04:13.582Z,5
2022-11-05T05:06:20.377Z,5
2022-11-05T05:08:24.166Z,5
2022-11-05T05:10:28.051Z,5
2022-11-05T05:12:31.935Z,5
2022-11-05T05:14:35.816Z,5
2022-11-05T05:16:39.665Z,5.1
2022-11-05T05:18:46.287Z,5.1
2022-11-05T05:20:50.342Z,5.1
2022-11-05T05:22:54.198Z,5.1
2022-11-05T05:24:57.953Z,5.2
2022-11-05T05:27:01.749Z,5.2
2022-11-05T05:29:05.633Z,5.2
2022-11-05T05:31:09.503Z,5.3
2022-11-05T05:33:13.516Z,5.3
2022-11-05T05:35:20.161Z,5.2
2022-11-05T05:37:24.058Z,5.2
2022-11-05T05:39:27.901Z,5.3
2022-11-05T05:41:31.785Z,5.2
2022-11-05T05:43:35.646Z,5.2
2022-11-05T05:45:39.565Z,5.2
2022-11-05T05:47:43.440Z,5.2
2022-11-05T05:49:50.099Z,5.2
2022-11-05T05:51:54.037Z,5.2
2022-11-05T05:53:57.858Z,5.2
2022-11-05T06:02:42.065Z,5.1
2022-11-05T06:08:53.351Z,5.1
2022-11-05T06:13:01.011Z,5.1
2022-11-05T06:15:04.926Z,5.1
2022-11-05T06:17:11.634Z,5.1
2022-11-05T06:19:15.508Z,5.1
2022-11-05T06:21:19.384Z,5.1
2022-11-05T06:25:27.051Z,5.1
2022-11-05T06:27:30.931Z,5.1
2022-11-05T06:31:41.601Z,5.1
2022-11-05T06:37:53.244Z,5.2
2022-11-05T06:39:57.149Z,5.2
2022-11-05T06:42:18.012Z,5.1
2022-11-05T06:44:04.885Z,5.2
2022-11-05T06:46:11.692Z,5.2
2022-11-05T06:48:15.469Z,5.2
2022-11-05T06:50:19.239Z,5.2
2022-11-05T06:51:22.656Z,5.2
2022-11-05T06:53:26.534Z,5.2
2022-11-05T06:57:34.314Z,5.2
2022-11-05T06:59:41.011Z,5.2
2022-11-05T07:05:52.549Z,5.2
2022-11-05T07:07:56.425Z,5.3
2022-11-05T07:12:03.991Z,5.4
2022-11-05T07:14:10.801Z,5.4
2022-11-05T07:16:14.584Z,5.4
2022-11-05T07:18:18.446Z,5.4
2022-11-05T07:20:22.361Z,5.4
2022-11-05T07:22:26.259Z,5.5
2022-11-05T07:24:30.152Z,5.5
2022-11-05T07:26:34.798Z,5.6
2022-11-05T07:30:44.511Z,5.7
2022-11-05T07:34:52.133Z,5.8
2022-11-05T07:41:03.819Z,6
2022-11-05T07:43:10.746Z,6.1
2022-11-05T07:45:14.333Z,6.2
2022-11-05T07:47:18.191Z,6.3
2022-11-05T07:48:21.500Z,6.4
2022-11-05T07:50:25.376Z,6.5
2022-11-05T07:52:29.279Z,6.6
2022-11-05T07:54:33.164Z,6.7
2022-11-05T07:56:39.871Z,6.8
2022-11-05T07:58:43.674Z,6.8
2022-11-05T08:00:47.702Z,7
2022-11-05T08:02:51.702Z,7.2
2022-11-05T08:04:55.312Z,8.4
2022-11-05T08:06:59.209Z,10
2022-11-05T08:09:03.040Z,10.9
2022-11-05T08:13:13.762Z,11.7
2022-11-05T08:15:17.484Z,12.1
2022-11-05T08:17:21.325Z,13.2
2022-11-05T08:19:25.150Z,14
2022-11-05T08:21:29.105Z,13.7
2022-11-05T08:23:32.914Z,13.1
2022-11-05T08:25:39.593Z,13.2
2022-11-05T08:29:47.310Z,13.8
2022-11-05T08:31:51.172Z,13.6
2022-11-05T08:33:59.714Z,13.3
2022-11-05T08:35:59.036Z,13.1
2022-11-05T08:38:02.981Z,13.6
2022-11-05T08:40:09.601Z,11.8
2022-11-05T08:42:13.460Z,10.8
2022-11-05T08:44:17.361Z,9.4
2022-11-05T08:53:39.068Z,13.5
2022-11-05T08:55:42.957Z,13.5
2022-11-05T09:06:02.409Z,14.8
2022-11-05T09:08:09.076Z,15.1
2022-11-05T09:10:12.991Z,14.8
2022-11-05T09:14:20.764Z,14.5
2022-11-05T09:16:24.666Z,15.5
2022-11-05T09:20:32.494Z,15.8
2022-11-05T09:22:43.251Z,15.5
2022-11-05T09:28:50.959Z,16
2022-11-05T09:30:54.848Z,16.6
2022-11-05T09:32:58.793Z,16.5
2022-11-05T09:39:13.368Z,16.3
2022-11-05T09:41:17.257Z,17.3
2022-11-05T09:45:52.336Z,18.4
2022-11-05T09:47:56.218Z,17.4
2022-11-05T09:50:02.977Z,17.5
2022-11-05T09:52:06.909Z,17.3
2022-11-05T09:54:10.837Z,16.5
2022-11-05T09:56:14.763Z,16.5
2022-11-05T09:58:18.663Z,16.2
2022-11-05T10:00:22.603Z,16.5
2022-11-05T10:02:26.588Z,16.9
2022-11-05T10:04:33.276Z,17.1
2022-11-05T10:06:37.204Z,17.4
2022-11-05T10:08:41.135Z,17.3
2022-11-05T10:12:48.977Z,18.1
2022-11-05T10:19:03.622Z,16.7
2022-11-05T10:21:07.537Z,16.2
2022-11-05T10:23:11.734Z,15.6
2022-11-05T10:25:15.393Z,14.9
2022-11-05T10:27:19.332Z,14.4
2022-11-05T10:29:23.286Z,13.9
2022-11-05T10:31:30.353Z,14.2
2022-11-05T10:33:33.962Z,14.1
2022-11-05T10:35:37.897Z,13.9
2022-11-05T10:37:41.829Z,13.8
2022-11-05T10:40:49.131Z,14.5
2022-11-05T10:42:53.080Z,14
2022-11-05T10:44:56.987Z,13
2022-11-05T10:47:03.754Z,12.6
2022-11-05T10:51:11.616Z,13.4
2022-11-05T10:53:15.540Z,13.2
2022-11-05T10:55:19.463Z,13.1
2022-11-05T10:57:23.400Z,13.1
2022-11-05T10:59:27.361Z,13.3
2022-11-05T11:01:34.249Z,13
2022-11-05T11:03:38.009Z,12.8
2022-11-05T11:05:41.936Z,12.4
2022-11-05T11:07:45.862Z,12.5
2022-11-05T11:09:49.789Z,12.4
2022-11-05T11:11:53.720Z,12.5
2022-11-05T11:13:57.629Z,12.6
2022-11-05T11:16:04.371Z,12.5
2022-11-05T11:18:08.295Z,12.4
2022-11-05T11:20:12.208Z,12.4
2022-11-05T11:22:16.152Z,12.2
2022-11-05T11:24:20.087Z,12.3
2022-11-05T11:26:24.002Z,12.3
2022-11-05T11:28:27.940Z,12.3
2022-11-05T11:30:34.666Z,12.1
2022-11-05T11:32:38.582Z,12
2022-11-05T11:34:42.496Z,12.2
2022-11-05T11:35:45.872Z,12.2
2022-11-05T11:37:49.802Z,12.2
2022-11-05T11:39:53.727Z,12.2
2022-11-05T11:46:14.021Z,12.1
2022-11-05T11:52:20.078Z,12.2
2022-11-05T11:54:28.847Z,12
2022-11-05T11:56:27.953Z,12.1
2022-11-05T11:58:34.699Z,12
2022-11-05T12:00:38.624Z,12
2022-11-05T12:02:42.670Z,12.1
2022-11-05T12:04:46.452Z,12.2
2022-11-05T12:06:50.411Z,12.2
2022-11-05T12:09:01.814Z,12
2022-11-05T12:10:58.235Z,12.1
2022-11-05T12:13:05.012Z,12.2
2022-11-05T12:15:08.941Z,12.2
2022-11-05T12:17:12.811Z,12.2
2022-11-05T12:19:16.746Z,12.3
2022-11-05T12:21:40.737Z,12
2022-11-05T12:23:24.569Z,12
2022-11-05T12:25:28.501Z,11.9
2022-11-05T12:27:35.231Z,11.6
2022-11-05T12:29:39.143Z,11.5
2022-11-05T12:31:43.082Z,11.6
2022-11-05T12:32:46.529Z,11.6
2022-11-05T12:34:50.367Z,11.6
2022-11-05T12:36:54.285Z,11.6
2022-11-05T12:38:58.211Z,11.7
2022-11-05T12:41:04.921Z,11.9
2022-11-05T12:43:11.774Z,11.9
2022-11-05T12:45:12.770Z,11.9
2022-11-05T12:47:16.696Z,12
2022-11-05T12:49:20.608Z,12
2022-11-05T12:51:24.523Z,11.9
2022-11-05T12:53:28.431Z,11.9
2022-11-05T12:55:35.159Z,11.9
2022-11-05T12:57:39.104Z,11.9
2022-11-05T12:59:42.999Z,12
2022-11-05T13:01:47.196Z,11.9
2022-11-05T13:03:50.841Z,12.1
2022-11-05T13:05:54.754Z,12.1
2022-11-05T13:07:58.669Z,12.2
2022-11-05T13:10:05.555Z,12.1
2022-11-05T13:12:09.325Z,12
2022-11-05T13:14:13.233Z,11.9
2022-11-05T13:16:17.173Z,12
2022-11-05T13:18:21.138Z,12.1
2022-11-05T13:20:25.037Z,11.9
2022-11-05T13:22:28.966Z,11.9
2022-11-05T13:24:35.687Z,11.9
2022-11-05T13:26:39.617Z,11.9
2022-11-05T13:28:43.540Z,11.9
2022-11-05T13:31:13.178Z,11.9
2022-11-05T13:33:17.130Z,11.9
2022-11-05T13:35:21.045Z,12
2022-11-05T13:37:27.770Z,11.9
2022-11-05T13:39:31.661Z,11.9
2022-11-05T13:41:35.587Z,11.9
2022-11-05T13:43:39.513Z,11.8
2022-11-05T13:45:43.429Z,11.6
2022-11-05T13:47:47.359Z,11.6
2022-11-05T13:49:51.295Z,11.7
2022-11-05T13:51:58.020Z,11.6
2022-11-05T13:54:01.944Z,11.6
2022-11-05T13:56:05.844Z,11.5
2022-11-05T13:58:09.751Z,11.5
2022-11-05T14:00:13.680Z,11.4
2022-11-05T14:02:17.729Z,11.4
2022-11-05T14:04:21.527Z,11.4
2022-11-05T14:06:28.229Z,11.4
2022-11-05T14:08:32.153Z,11.3
2022-11-05T14:10:36.087Z,11.4
2022-11-05T14:12:40.019Z,11.3
2022-11-05T14:14:43.904Z,11.3
2022-11-05T14:16:47.810Z,11.3
2022-11-05T14:18:51.727Z,11.3
2022-11-05T14:20:58.474Z,11.3
2022-11-05T14:23:06.046Z,11.3
2022-11-05T14:26:09.823Z,11.3
2022-11-05T14:32:21.419Z,11.4
2022-11-05T14:34:28.134Z,11.4
2022-11-05T14:36:32.040Z,11.4
2022-11-05T14:40:39.870Z,11.4
2022-11-05T14:44:47.698Z,11.4
2022-11-05T14:46:51.619Z,11.4
2022-11-05T14:48:58.329Z,11.4
2022-11-05T14:51:02.243Z,11.4
2022-11-05T14:53:06.148Z,11.3
2022-11-05T14:55:10.084Z,11.2
2022-11-05T14:57:13.967Z,11.2
2022-11-05T14:59:17.897Z,11.1
2022-11-05T15:01:21.919Z,11.1
2022-11-05T15:03:28.584Z,11
2022-11-05T15:05:32.436Z,10.9
2022-11-05T15:07:36.357Z,10.9
2022-11-05T15:09:40.265Z,10.8
2022-11-05T15:13:48.061Z,10.8
2022-11-05T15:15:51.980Z,10.7
2022-11-05T15:17:58.688Z,10.7
2022-11-05T15:20:02.620Z,10.7
2022-11-05T15:22:06.494Z,10.7
2022-11-05T15:25:13.743Z,10.6
2022-11-05T15:27:17.632Z,10.6
2022-11-05T15:31:28.261Z,10.6
2022-11-05T15:33:32.141Z,10.6
2022-11-05T15:35:36.043Z,10.6
2022-11-05T15:37:39.950Z,10.6
2022-11-05T15:39:43.848Z,10.6
2022-11-05T15:41:47.718Z,10.6
2022-11-05T15:43:53.119Z,10.5
2022-11-05T15:45:59.797Z,10.5
2022-11-05T15:48:03.677Z,10.5
2022-11-05T15:50:11.453Z,10.5
2022-11-05T15:52:11.471Z,10.4
2022-11-05T15:54:29.823Z,10.4
2022-11-05T15:56:19.238Z,10.4
2022-11-05T15:58:23.159Z,10.4
2022-11-05T16:00:29.878Z,10.4
2022-11-05T16:02:33.958Z,10.4
2022-11-05T16:04:37.795Z,10.4
2022-11-05T16:06:41.533Z,10.5
2022-11-05T16:08:45.411Z,10.4
2022-11-05T16:10:49.311Z,10.5
2022-11-05T16:12:53.192Z,10.5
2022-11-05T16:14:59.879Z,10.4
2022-11-05T16:17:03.795Z,10.4
2022-11-05T16:19:07.668Z,10.4
2022-11-05T16:20:11.024Z,10.4
2022-11-05T16:22:14.903Z,10.4
2022-11-05T16:24:18.806Z,10.4
2022-11-05T16:28:29.415Z,10.4
2022-11-05T16:32:37.193Z,10.4
2022-11-05T16:34:41.105Z,10.4
2022-11-05T16:36:45.004Z,10.4
2022-11-05T16:38:48.885Z,10.4
2022-11-05T16:40:52.788Z,10.3
2022-11-05T16:42:59.499Z,10.3
2022-11-05T16:45:03.412Z,10.3
2022-11-05T16:47:07.309Z,10.3
2022-11-05T16:49:11.232Z,10.3
2022-11-05T16:51:15.150Z,10.3
2022-11-05T16:53:19.031Z,10.3
2022-11-05T16:55:22.937Z,10.3
2022-11-05T16:57:29.645Z,10.4
2022-11-05T16:59:33.538Z,10.4
2022-11-05T17:01:37.553Z,10.3
2022-11-05T17:03:41.331Z,10.4
2022-11-05T17:05:45.252Z,10.4
2022-11-05T17:07:49.142Z,10.4
2022-11-05T17:09:53.043Z,10.4
2022-11-05T17:11:59.759Z,10.4
2022-11-05T17:14:03.644Z,10.4
2022-11-05T17:16:07.562Z,10.4
2022-11-05T17:18:37.216Z,10.4
2022-11-05T17:20:41.315Z,10.4
2022-11-05T17:22:45.022Z,10.3
2022-11-05T17:24:51.732Z,10.3
2022-11-05T17:26:55.614Z,10.3
2022-11-05T17:31:03.422Z,10.3
2022-11-05T17:33:07.387Z,10.3
2022-11-05T17:37:15.093Z,10.3
2022-11-05T17:39:24.850Z,10.2
2022-11-05T17:41:25.802Z,10.2
2022-11-05T17:43:29.705Z,10.2
2022-11-05T17:45:33.657Z,10.2
2022-11-05T17:47:37.524Z,10.2
2022-11-05T17:49:41.416Z,10.2
2022-11-05T17:51:45.311Z,10.2
2022-11-05T17:55:55.909Z,10.2
2022-11-05T18:06:15.403Z,10.3
2022-11-05T18:08:22.094Z,10.3
2022-11-05T18:10:26.001Z,10.3
2022-11-05T18:12:29.895Z,10.3
2022-11-05T18:13:33.234Z,10.3
2022-11-05T18:15:37.125Z,10.3
2022-11-05T18:17:41.020Z,10.3
2022-11-05T18:19:44.905Z,10.3
2022-11-05T18:21:51.730Z,10.3
2022-11-05T18:23:55.630Z,10.3
2022-11-05T18:25:59.504Z,10.3
2022-11-05T18:28:03.400Z,10.3
2022-11-05T18:30:07.290Z,10.3
2022-11-05T18:32:11.193Z,10.4
2022-11-05T18:34:15.093Z,10.4
2022-11-05T18:36:21.794Z,10.4
2022-11-05T18:38:25.675Z,10.3
2022-11-05T18:40:29.568Z,10.4
2022-11-05T18:42:33.472Z,10.3
2022-11-05T18:44:39.457Z,10.3
2022-11-05T18:46:57.682Z,10.3
2022-11-05T18:48:45.158Z,10.3
2022-11-05T18:50:51.863Z,10.3
2022-11-05T18:52:55.776Z,10.3
2022-11-05T18:54:59.669Z,10.3
2022-11-05T18:57:03.567Z,10.3
2022-11-05T18:59:35.185Z,10.3
2022-11-05T19:01:11.378Z,10.3
2022-11-05T19:03:15.353Z,10.3
2022-11-05T19:05:29.051Z,10.2
2022-11-05T19:07:25.825Z,10.2
2022-11-05T19:09:29.742Z,10.2
2022-11-05T19:10:33.073Z,10.2
2022-11-05T19:12:36.944Z,10.2
2022-11-05T19:14:40.850Z,10.2
2022-11-05T19:16:44.739Z,10.2
2022-11-05T19:18:51.445Z,10.2
2022-11-05T19:20:55.357Z,10.2
2022-11-05T19:22:59.238Z,10.2
2022-11-05T19:25:03.120Z,10.2
2022-11-05T19:27:07.018Z,10.2
2022-11-05T19:29:10.889Z,10.2
2022-11-05T19:31:14.761Z,10.2
2022-11-05T19:33:21.482Z,10.2
2022-11-05T19:35:25.376Z,10.2
2022-11-05T19:37:29.268Z,10.2
2022-11-05T19:41:37.045Z,10.2
2022-11-05T19:43:40.938Z,10.2
2022-11-05T19:45:45.441Z,10.2
2022-11-05T19:51:59.312Z,10.2
2022-11-05T19:54:03.326Z,10.2
2022-11-05T19:56:07.204Z,10.2
2022-11-05T20:00:14.982Z,10.2
2022-11-05T20:02:21.810Z,10.2
2022-11-05T20:04:25.585Z,10.2
2022-11-05T20:06:29.496Z,10.2
2022-11-05T20:09:36.739Z,10.2
2022-11-05T20:15:51.258Z,10.2
2022-11-05T20:19:59.027Z,10.2
2022-11-05T20:22:02.919Z,10.2
2022-11-05T20:24:06.819Z,10.3
2022-11-05T20:30:21.329Z,10.3
2022-11-05T20:38:36.890Z,10.3
2022-11-05T20:40:40.795Z,10.3
2022-11-05T20:42:44.701Z,10.3
2022-11-05T20:44:51.393Z,10.3
2022-11-05T20:46:55.284Z,10.3
2022-11-05T20:48:59.184Z,10.3
2022-11-05T20:53:06.963Z,10.3
2022-11-05T20:55:10.870Z,10.2
2022-11-05T20:57:14.781Z,10.2
2022-11-05T21:05:58.966Z,10.3
2022-11-05T21:08:02.854Z,10.3
2022-11-05T21:10:06.744Z,10.3
2022-11-05T21:12:13.478Z,10.2
2022-11-05T21:14:17.367Z,10.2
2022-11-05T21:16:21.424Z,10.2
2022-11-05T21:18:25.275Z,10.2
2022-11-05T21:20:29.160Z,10.2
2022-11-05T21:22:33.046Z,10.1
2022-11-05T21:28:47.575Z,10.1
2022-11-05T21:30:51.463Z,10.1
2022-11-05T21:32:55.376Z,10.1
2022-11-05T21:34:59.255Z,10.1
2022-11-05T21:39:13.039Z,10
2022-11-05T21:43:19.189Z,10.1
2022-11-05T21:45:23.019Z,10.1
2022-11-05T21:47:26.902Z,10
2022-11-05T21:49:30.793Z,10
2022-11-05T21:51:34.697Z,10
2022-11-05T21:53:38.559Z,10.1
2022-11-05T21:55:45.267Z,10.1
2022-11-05T21:57:49.166Z,10.1
2022-11-05T21:59:53.057Z,10
2022-11-05T22:00:56.443Z,10
2022-11-05T22:03:00.429Z,10
2022-11-05T22:05:04.180Z,10
2022-11-05T22:07:08.090Z,9.9
2022-11-05T22:09:14.908Z,9.9
2022-11-05T22:11:18.789Z,9.8
2022-11-05T22:13:22.701Z,9.8
2022-11-05T22:15:26.563Z,9.8
2022-11-05T22:21:38.295Z,9.8
2022-11-05T22:25:48.885Z,9.8
2022-11-05T22:27:52.888Z,9.8
2022-11-05T22:29:57.605Z,9.8
2022-11-05T22:36:09.251Z,9.8
2022-11-05T22:38:15.952Z,9.7
2022-11-05T22:40:23.734Z,9.7
2022-11-05T22:42:23.772Z,9.7
2022-11-05T22:44:27.618Z,9.7
2022-11-05T22:46:31.505Z,9.8
2022-11-05T22:48:35.396Z,9.8
2022-11-05T22:50:39.282Z,9.8
2022-11-05T22:52:45.993Z,9.8
2022-11-05T22:54:49.872Z,9.8
2022-11-05T22:57:57.092Z,9.7
2022-11-05T23:00:00.983Z,9.8
2022-11-05T23:02:09.451Z,9.7
2022-11-05T23:04:08.745Z,9.7
2022-11-05T23:06:15.463Z,9.7
2022-11-05T23:08:19.348Z,9.7
2022-11-05T23:10:23.270Z,9.7
2022-11-05T23:12:27.121Z,9.7
2022-11-05T23:14:31.033Z,9.7
2022-11-05T23:16:34.926Z,9.7
2022-11-05T23:18:38.793Z,9.7
2022-11-05T23:20:45.498Z,9.6
2022-11-05T23:22:49.400Z,9.6
2022-11-05T23:24:53.274Z,9.6
2022-11-05T23:26:57.166Z,9.6
2022-11-05T23:29:01.055Z,9.6
2022-11-05T23:31:04.956Z,9.5
2022-11-05T23:33:08.822Z,9.5
2022-11-05T23:35:15.514Z,9.5
2022-11-05T23:37:19.403Z,9.5
2022-11-05T23:39:23.304Z,9.4
2022-11-05T23:41:27.174Z,9.4
2022-11-05T23:43:31.055Z,9.4
2022-11-05T23:45:34.937Z,9.5
2022-11-05T23:47:38.809Z,9.5
2022-11-05T23:49:45.490Z,9.5
2022-11-05T23:51:49.366Z,9.5
2022-11-05T23:53:53.238Z,9.4
2022-11-05T23:54:56.597Z,9.4
2022-11-05T23:57:00.459Z,9.4
2022-11-05T23:59:04.348Z,9.4
